Time;durP1;ratioP1;P1;durP2;ratioP2;P2;SDS_P1;SDS_P2;PMS_P1;PMS_P2;Temp;Humidity;BMP_temperature;BMP_pressure;BME280_temperature;BME280_humidity;BME280_pressure;Samples;Min_cycle;Max_cycle;Signal;HPM_P1;HPM_P2
2024/01/07 00:02:19;;;;;;;;;;;;;;;8.07;92.91;98164.59;4330223;33;34162;-84
2024/01/07 00:04:50;;;;;;;;;;;;;;;7.76;93.41;98167.19;4337219;33;32885;-86
2024/01/07 00:07:23;;;;;;;;;;;;;;;7.77;95.44;98171.47;4337769;33;33451;-84
2024/01/07 00:09:52;;;;;;;;;;;;;;;7.84;93.51;98165.25;4344230;33;34512;-86
2024/01/07 00:12:20;;;;;;;;;;;;;;;8.49;89.22;98165.16;4335623;33;34151;-84
2024/01/07 00:14:52;;;;;;;;;;;;;;;7.85;94.11;98165.22;4337509;33;32886;-83
2024/01/07 00:17:21;;;;;;;;;;;;;;;7.48;95.71;98163.56;4333897;33;34814;-84
2024/01/07 00:19:55;;;;;;;;;;;;;;;7.64;94.86;98164.03;4336152;33;34013;-83
2024/01/07 00:22:25;;;;;;;;;;;;;;;8.29;91.88;98160.56;4343786;33;34566;-83
2024/01/07 00:24:54;;;;;;;;;;;;;;;7.87;92.15;98163.41;4336544;33;32908;-84
2024/01/07 00:27:30;;;;;;;;;;;;;;;7.47;95.63;98153.31;4335810;33;33761;-84
2024/01/07 00:29:58;;;;;;;;;;;;;;;7.77;93.16;98154.22;4338485;33;34003;-83
2024/01/07 00:32:27;;;;;;;;;;;;;;;8.17;90.59;98160.06;4340136;33;34029;-84
2024/01/07 00:34:57;;;;;;;;;;;;;;;7.82;92.97;98159.28;4335857;33;34124;-84
2024/01/07 00:37:27;;;;;;;;;;;;;;;7.87;92.18;98154.81;4337909;33;33582;-84
2024/01/07 00:39:59;;;;;;;;;;;;;;;7.80;93.22;98150.72;4335701;33;33798;-84
2024/01/07 00:42:31;;;;;;;;;;;;;;;7.91;92.91;98151.28;4332425;33;34219;-83
2024/01/07 00:45:01;;;;;;;;;;;;;;;8.23;90.29;98152.12;4339763;33;33666;-83
2024/01/07 00:47:34;;;;;;;;;;;;;;;7.56;93.77;98158.19;4334823;33;33653;-83
2024/01/07 00:50:03;;;;;;;;;;;;;;;7.75;94.65;98150.00;4332487;33;33753;-84
2024/01/07 00:52:38;;;;;;;;;;;;;;;7.86;92.99;98155.72;4336812;33;33976;-83
2024/01/07 00:55:08;;;;;;;;;;;;;;;7.82;91.78;98169.59;4339286;33;33297;-82
2024/01/07 00:57:38;;;;;;;;;;;;;;;7.82;92.45;98161.84;4337943;33;33890;-85
2024/01/07 01:00:07;;;;;;;;;;;;;;;7.34;97.48;98154.47;4319217;33;33793;-83
2024/01/07 01:02:37;;;;;;;;;;;;;;;7.52;95.63;98164.34;4335792;33;34600;-82
2024/01/07 01:05:07;;;;;;;;;;;;;;;7.43;94.45;98157.69;4333463;33;32013;-83
2024/01/07 01:07:39;;;;;;;;;;;;;;;7.80;95.00;98156.72;4337996;33;34572;-85
2024/01/07 01:10:10;;;;;;;;;;;;;;;7.51;94.85;98159.22;4337042;33;33800;-83
2024/01/07 01:12:40;;;;;;;;;;;;;;;7.59;96.40;98167.62;4329937;33;34519;-85
2024/01/07 01:15:10;;;;;;;;;;;;;;;7.68;94.33;98162.22;4330413;33;35444;-83
2024/01/07 01:17:40;;;;;;;;;;;;;;;7.58;93.44;98171.91;4338144;33;33991;-83
2024/01/07 01:20:10;;;;;;;;;;;;;;;8.33;90.40;98166.47;4341176;33;33939;-83
2024/01/07 01:22:39;;;;;;;;;;;;;;;8.08;90.81;98158.56;4335735;33;34260;-83
2024/01/07 01:25:12;;;;;;;;;;;;;;;8.38;89.31;98166.34;4336425;33;33070;-82
2024/01/07 01:27:44;;;;;;;;;;;;;;;7.73;92.66;98160.34;4333255;33;33899;-83
2024/01/07 01:30:13;;;;;;;;;;;;;;;7.61;94.83;98160.66;4345303;33;33748;-82
2024/01/07 01:32:44;;;;;;;;;;;;;;;7.78;94.02;98158.53;4340878;33;35202;-83
2024/01/07 01:35:13;;;;;;;;;;;;;;;8.20;89.25;98153.06;4339571;33;33316;-83
2024/01/07 01:37:41;;;;;;;;;;;;;;;7.90;93.13;98157.31;4330045;33;34129;-83
2024/01/07 01:40:19;;;;;;;;;;;;;;;7.50;95.87;98153.22;4333996;33;35593;-83
2024/01/07 01:42:49;;;;;;;;;;;;;;;8.12;89.72;98149.84;4331934;33;34651;-83
2024/01/07 01:45:18;;;;;;;;;;;;;;;8.01;89.25;98157.88;4328487;33;34042;-82
2024/01/07 01:47:47;;;;;;;;;;;;;;;7.74;90.36;98148.31;4337054;33;34094;-83
2024/01/07 01:50:20;;;;;;;;;;;;;;;7.93;91.31;98156.41;4331759;33;34837;-82
2024/01/07 01:52:49;;;;;;;;;;;;;;;8.31;88.94;98156.19;4330137;33;33225;-82
2024/01/07 01:55:20;;;;;;;;;;;;;;;7.63;94.18;98149.41;4334264;33;33404;-83
2024/01/07 01:57:53;;;;;;;;;;;;;;;8.21;89.19;98147.00;4325889;33;35548;-83
2024/01/07 02:00:22;;;;;;;;;;;;;;;7.92;90.73;98152.97;4338851;33;33587;-84
2024/01/07 02:02:51;;;;;;;;;;;;;;;7.83;89.66;98146.34;4334214;33;34320;-83
2024/01/07 02:05:28;;;;;;;;;;;;;;;8.07;87.99;98147.41;4343594;33;33913;-83
2024/01/07 02:07:57;;;;;;;;;;;;;;;8.20;88.62;98139.31;4332108;33;33763;-84
2024/01/07 02:10:28;;;;;;;;;;;;;;;8.22;88.35;98140.09;4337057;33;33825;-83
2024/01/07 02:12:58;;;;;;;;;;;;;;;7.59;92.22;98137.50;4327536;33;34015;-83
2024/01/07 02:15:27;;;;;;;;;;;;;;;7.38;93.81;98132.88;4330437;33;34407;-83
2024/01/07 02:17:58;;;;;;;;;;;;;;;8.12;88.68;98131.78;4335758;33;34651;-83
2024/01/07 02:20:27;;;;;;;;;;;;;;;8.31;88.31;98124.31;4330388;33;34166;-84
2024/01/07 02:22:57;;;;;;;;;;;;;;;7.93;89.51;98125.44;4337833;33;35040;-83
2024/01/07 02:25:30;;;;;;;;;;;;;;;8.29;87.36;98118.37;4336504;33;33265;-84
2024/01/07 02:28:05;;;;;;;;;;;;;;;8.47;86.79;98123.00;4344474;33;33533;-83
2024/01/07 02:30:36;;;;;;;;;;;;;;;8.74;84.60;98130.81;4335876;33;34996;-84
2024/01/07 02:33:13;;;;;;;;;;;;;;;7.66;91.80;98120.97;4333114;33;34174;-84
2024/01/07 02:35:43;;;;;;;;;;;;;;;7.86;90.40;98128.16;4329140;33;34252;-84
2024/01/07 02:38:17;;;;;;;;;;;;;;;8.00;89.68;98127.78;4332177;33;33631;-84
2024/01/07 02:40:47;;;;;;;;;;;;;;;8.12;89.98;98124.03;4335376;33;34729;-84
2024/01/07 02:43:16;;;;;;;;;;;;;;;8.16;90.20;98119.59;4333826;33;33284;-84
2024/01/07 02:45:51;;;;;;;;;;;;;;;7.84;90.59;98122.19;4339339;33;33012;-84
2024/01/07 02:48:19;;;;;;;;;;;;;;;7.90;90.58;98108.25;4333145;33;33596;-83
2024/01/07 02:50:48;;;;;;;;;;;;;;;7.50;94.86;98105.94;4345088;33;33509;-85
2024/01/07 02:53:17;;;;;;;;;;;;;;;8.01;90.80;98107.97;4327646;33;34434;-85
2024/01/07 02:55:47;;;;;;;;;;;;;;;7.58;92.80;98109.16;4331079;33;33327;-85
2024/01/07 02:58:19;;;;;;;;;;;;;;;7.84;91.31;98111.88;4338240;33;33468;-85
2024/01/07 03:00:50;;;;;;;;;;;;;;;7.93;90.46;98105.63;4333017;33;34099;-85
2024/01/07 03:03:20;;;;;;;;;;;;;;;7.71;92.79;98105.38;4332002;33;34084;-85
2024/01/07 03:05:56;;;;;;;;;;;;;;;7.73;92.14;98103.56;4337851;33;33323;-86
2024/01/07 03:08:24;;;;;;;;;;;;;;;8.16;89.00;98098.94;4338711;33;34397;-85
2024/01/07 03:10:57;;;;;;;;;;;;;;;8.10;88.76;98100.81;4338462;33;34982;-85
2024/01/07 03:13:25;;;;;;;;;;;;;;;8.49;87.89;98102.31;4339788;33;34344;-86
2024/01/07 03:15:54;;;;;;;;;;;;;;;8.20;88.05;98100.56;4343753;33;33750;-85
2024/01/07 03:18:24;;;;;;;;;;;;;;;8.18;88.01;98095.41;4333260;33;34108;-85
2024/01/07 03:20:52;;;;;;;;;;;;;;;7.83;90.17;98104.19;4334104;33;33635;-84
2024/01/07 03:23:29;;;;;;;;;;;;;;;8.15;88.59;98097.25;4341285;33;34712;-85
2024/01/07 03:26:02;;;;;;;;;;;;;;;7.99;88.86;98102.84;4343838;33;32935;-85
2024/01/07 03:28:31;;;;;;;;;;;;;;;8.59;86.85;98097.69;4332900;33;34865;-86
2024/01/07 03:31:04;;;;;;;;;;;;;;;8.46;85.43;98100.66;4341428;33;33820;-85
2024/01/07 03:33:33;;;;;;;;;;;;;;;8.34;88.06;98095.84;4341575;33;34004;-85
2024/01/07 03:36:02;;;;;;;;;;;;;;;8.66;86.21;98094.87;4333690;33;34203;-85
2024/01/07 03:38:30;;;;;;;;;;;;;;;8.90;84.12;98093.25;4333454;33;34782;-87
2024/01/07 03:41:03;;;;;;;;;;;;;;;8.92;84.02;98093.22;4338136;33;34696;-86
2024/01/07 03:43:32;;;;;;;;;;;;;;;8.64;86.06;98099.25;4334626;33;33839;-85
2024/01/07 03:46:06;;;;;;;;;;;;;;;8.37;86.92;98100.06;4341601;33;33100;-86
2024/01/07 03:48:34;;;;;;;;;;;;;;;8.91;84.52;98094.09;4339935;33;33448;-85
2024/01/07 03:51:04;;;;;;;;;;;;;;;8.42;85.98;98104.22;4328798;33;35578;-86
2024/01/07 03:53:34;;;;;;;;;;;;;;;7.82;90.35;98095.56;4329827;33;33775;-85
2024/01/07 03:56:11;;;;;;;;;;;;;;;8.15;90.20;98098.09;4341344;33;34143;-85
2024/01/07 03:58:40;;;;;;;;;;;;;;;8.23;88.09;98103.03;4342139;33;33946;-87
2024/01/07 04:01:11;;;;;;;;;;;;;;;8.75;84.89;98102.34;4337879;33;34680;-86
2024/01/07 04:03:40;;;;;;;;;;;;;;;9.00;83.95;98095.56;4327619;33;34162;-86
2024/01/07 04:06:09;;;;;;;;;;;;;;;9.02;83.58;98104.94;4335988;33;34105;-84
2024/01/07 04:08:38;;;;;;;;;;;;;;;8.47;87.38;98104.09;4329776;33;33562;-85
2024/01/07 04:11:10;;;;;;;;;;;;;;;8.10;88.37;98107.72;4335309;33;34540;-85
2024/01/07 04:13:39;;;;;;;;;;;;;;;8.47;86.15;98099.75;4336743;33;33939;-87
2024/01/07 04:16:16;;;;;;;;;;;;;;;7.99;90.24;98102.00;4326452;33;32908;-85
2024/01/07 04:18:46;;;;;;;;;;;;;;;8.36;87.90;98109.56;4331384;33;34781;-85
2024/01/07 04:21:24;;;;;;;;;;;;;;;7.65;91.65;98106.34;4341126;33;33830;-84
2024/01/07 04:23:53;;;;;;;;;;;;;;;7.75;91.75;98114.69;4346446;33;35110;-86
2024/01/07 04:26:24;;;;;;;;;;;;;;;7.83;92.88;98109.34;4340983;33;33494;-85
2024/01/07 04:28:57;;;;;;;;;;;;;;;7.96;89.72;98109.84;4345035;33;33978;-85
2024/01/07 04:31:26;;;;;;;;;;;;;;;8.27;88.99;98109.81;4340001;33;34103;-85
2024/01/07 04:34:00;;;;;;;;;;;;;;;8.35;88.57;98110.44;4336116;33;33985;-85
2024/01/07 04:36:28;;;;;;;;;;;;;;;8.45;86.86;98111.88;4332900;33;33657;-85
2024/01/07 04:38:57;;;;;;;;;;;;;;;8.59;87.84;98106.28;4329057;33;33812;-85
2024/01/07 04:41:28;;;;;;;;;;;;;;;8.69;85.52;98109.44;4340121;33;34984;-85
2024/01/07 04:43:56;;;;;;;;;;;;;;;9.00;83.68;98106.72;4340205;33;34441;-85
2024/01/07 04:46:34;;;;;;;;;;;;;;;9.30;81.89;98110.06;4346546;33;33206;-86
2024/01/07 04:49:03;;;;;;;;;;;;;;;8.85;84.67;98104.66;4345189;33;36503;-85
2024/01/07 04:51:36;;;;;;;;;;;;;;;8.94;84.45;98107.78;4342218;33;33795;-85
2024/01/07 04:54:06;;;;;;;;;;;;;;;8.73;85.58;98111.06;4339976;33;33906;-85
2024/01/07 04:56:36;;;;;;;;;;;;;;;8.57;86.77;98102.91;4341333;33;33728;-85
2024/01/07 04:59:06;;;;;;;;;;;;;;;8.76;85.46;98103.19;4346264;33;33604;-86
2024/01/07 05:01:36;;;;;;;;;;;;;;;8.93;84.50;98103.50;4340670;33;34665;-85
2024/01/07 05:04:11;;;;;;;;;;;;;;;8.69;85.37;98097.34;4340821;33;34777;-85
2024/01/07 05:06:39;;;;;;;;;;;;;;;8.91;83.88;98102.69;4340300;33;33431;-85
2024/01/07 05:09:08;;;;;;;;;;;;;;;8.71;85.81;98107.66;4346211;33;33935;-86
2024/01/07 05:11:41;;;;;;;;;;;;;;;8.79;85.86;98095.31;4346353;33;33936;-84
2024/01/07 05:14:13;;;;;;;;;;;;;;;8.96;84.94;98100.84;4340739;33;34854;-86
2024/01/07 05:16:41;;;;;;;;;;;;;;;8.91;84.18;98107.88;4340497;33;33293;-85
2024/01/07 05:19:13;;;;;;;;;;;;;;;9.00;83.70;98096.37;4345389;33;33594;-86
2024/01/07 05:21:42;;;;;;;;;;;;;;;9.19;82.78;98104.41;4346331;33;34770;-86
2024/01/07 05:24:16;;;;;;;;;;;;;;;9.11;82.75;98102.06;4331512;33;34406;-84
2024/01/07 05:26:46;;;;;;;;;;;;;;;9.27;82.43;98098.97;4326092;33;33027;-84
2024/01/07 05:29:18;;;;;;;;;;;;;;;9.27;82.66;98104.13;4328312;33;34371;-84
2024/01/07 05:31:47;;;;;;;;;;;;;;;9.58;80.16;98098.78;4325912;33;34899;-85
2024/01/07 05:34:16;;;;;;;;;;;;;;;9.48;81.25;98097.41;4337760;33;35196;-85
2024/01/07 05:36:46;;;;;;;;;;;;;;;9.78;78.70;98106.66;4340646;33;33701;-84
2024/01/07 05:39:14;;;;;;;;;;;;;;;9.64;79.61;98100.28;4333300;33;34187;-84
2024/01/07 05:41:47;;;;;;;;;;;;;;;9.52;80.57;98099.84;4333492;33;32876;-84
2024/01/07 05:44:22;;;;;;;;;;;;;;;9.68;79.95;98104.47;4340669;33;34212;-85
2024/01/07 05:46:53;;;;;;;;;;;;;;;9.83;78.42;98104.78;4327878;33;33119;-84
2024/01/07 05:49:24;;;;;;;;;;;;;;;9.90;78.36;98104.56;4330977;33;34217;-85
2024/01/07 05:51:52;;;;;;;;;;;;;;;10.01;77.26;98098.09;4328753;33;33510;-84
2024/01/07 05:54:25;;;;;;;;;;;;;;;9.58;79.34;98104.78;4325929;33;34860;-84
2024/01/07 05:56:58;;;;;;;;;;;;;;;9.57;79.37;98103.09;4330963;33;32478;-85
2024/01/07 05:59:29;;;;;;;;;;;;;;;9.64;79.04;98102.87;4338944;33;33692;-84
2024/01/07 06:02:07;;;;;;;;;;;;;;;9.78;78.55;98111.84;4336478;33;34566;-84
2024/01/07 06:04:37;;;;;;;;;;;;;;;9.66;78.39;98101.94;4331018;33;34056;-84
2024/01/07 06:07:09;;;;;;;;;;;;;;;9.42;79.55;98107.94;4327990;33;33055;-84
2024/01/07 06:09:39;;;;;;;;;;;;;;;9.69;78.39;98101.84;4331287;33;34759;-84
2024/01/07 06:12:15;;;;;;;;;;;;;;;9.61;79.79;98109.00;4326898;33;34133;-84
2024/01/07 06:14:44;;;;;;;;;;;;;;;9.69;78.65;98104.44;4325505;33;34560;-84
2024/01/07 06:17:13;;;;;;;;;;;;;;;9.57;79.30;98112.63;4331860;33;33704;-85
2024/01/07 06:19:41;;;;;;;;;;;;;;;9.88;78.10;98114.97;4333010;33;33542;-85
2024/01/07 06:22:11;;;;;;;;;;;;;;;9.99;77.68;98109.41;4330679;33;33793;-84
2024/01/07 06:24:40;;;;;;;;;;;;;;;9.90;77.72;98112.31;4325175;33;34205;-85
2024/01/07 06:27:16;;;;;;;;;;;;;;;10.19;75.98;98111.25;4339672;33;32940;-84
2024/01/07 06:29:46;;;;;;;;;;;;;;;9.94;77.35;98119.09;4327019;33;34894;-84
2024/01/07 06:32:16;;;;;;;;;;;;;;;9.95;77.09;98118.19;4342600;33;33787;-86
2024/01/07 06:34:44;;;;;;;;;;;;;;;9.91;77.02;98121.81;4339173;33;34441;-84
2024/01/07 06:37:13;;;;;;;;;;;;;;;9.95;77.01;98128.53;4330364;33;33406;-84
2024/01/07 06:39:45;;;;;;;;;;;;;;;9.89;77.06;98126.19;4334647;33;34629;-85
2024/01/07 06:42:15;;;;;;;;;;;;;;;9.77;77.98;98123.12;4330661;33;33840;-86
2024/01/07 06:44:47;;;;;;;;;;;;;;;10.04;77.04;98133.41;4329608;33;34849;-84
2024/01/07 06:47:15;;;;;;;;;;;;;;;9.87;77.41;98128.81;4324893;33;34239;-84
2024/01/07 06:49:47;;;;;;;;;;;;;;;9.91;77.55;98137.34;4344076;33;33788;-84
2024/01/07 06:52:16;;;;;;;;;;;;;;;9.55;78.88;98141.16;4329943;33;34473;-83
2024/01/07 06:54:46;;;;;;;;;;;;;;;9.38;79.99;98144.28;4342506;33;35063;-84
2024/01/07 06:57:14;;;;;;;;;;;;;;;9.94;77.71;98132.88;4341812;33;33763;-84
2024/01/07 06:59:50;;;;;;;;;;;;;;;9.74;78.28;98143.13;4344614;33;34576;-84
2024/01/07 07:02:25;;;;;;;;;;;;;;;9.94;77.54;98142.41;4341698;33;34692;-85
2024/01/07 07:04:53;;;;;;;;;;;;;;;9.99;77.19;98140.50;4332967;33;33942;-85
2024/01/07 07:07:25;;;;;;;;;;;;;;;10.01;77.07;98149.91;4333424;33;33550;-85
2024/01/07 07:09:53;;;;;;;;;;;;;;;9.91;77.56;98142.53;4332835;33;33795;-86
2024/01/07 07:12:28;;;;;;;;;;;;;;;9.89;77.49;98149.50;4327422;33;34499;-85
2024/01/07 07:14:57;;;;;;;;;;;;;;;9.97;77.51;98153.50;4327266;33;34506;-85
2024/01/07 07:17:27;;;;;;;;;;;;;;;9.82;78.65;98146.28;4341034;33;33429;-85
2024/01/07 07:22:59;;;;;;;;;;;;;;;10.03;76.76;98147.28;4332368;33;33263;-84
2024/01/07 07:25:31;;;;;;;;;;;;;;;9.68;78.20;98156.25;4326969;33;35077;-84
2024/01/07 07:28:02;;;;;;;;;;;;;;;9.73;77.96;98154.34;4330759;33;33891;-84
2024/01/07 07:30:32;;;;;;;;;;;;;;;9.39;79.72;98158.91;4331805;33;33811;-85
2024/01/07 07:33:05;;;;;;;;;;;;;;;9.38;79.82;98154.66;4330646;33;34675;-84
2024/01/07 07:35:34;;;;;;;;;;;;;;;9.32;79.78;98160.00;4326472;33;34112;-86
2024/01/07 07:38:04;;;;;;;;;;;;;;;9.13;80.95;98158.91;4328695;33;34446;-86
2024/01/07 07:40:34;;;;;;;;;;;;;;;9.38;80.22;98159.81;4336089;33;34138;-85
2024/01/07 07:43:07;;;;;;;;;;;;;;;9.25;80.76;98162.84;4339580;33;34607;-84
2024/01/07 07:45:37;;;;;;;;;;;;;;;9.22;81.70;98166.38;4330680;33;34992;-85
2024/01/07 07:48:06;;;;;;;;;;;;;;;9.32;80.82;98169.53;4334508;33;33563;-86
2024/01/07 07:50:35;;;;;;;;;;;;;;;9.36;80.28;98166.78;4333257;33;33515;-85
2024/01/07 07:53:10;;;;;;;;;;;;;;;9.29;81.03;98167.03;4333002;33;36033;-86
2024/01/07 07:55:40;;;;;;;;;;;;;;;9.30;80.63;98177.38;4337713;33;33617;-84
2024/01/07 07:58:12;;;;;;;;;;;;;;;9.16;81.75;98176.94;4334643;33;33270;-84
2024/01/07 08:00:47;;;;;;;;;;;;;;;9.39;80.27;98171.84;4335195;33;33612;-84
2024/01/07 08:03:16;;;;;;;;;;;;;;;9.24;81.06;98171.53;4330860;33;33502;-85
2024/01/07 08:05:46;;;;;;;;;;;;;;;9.16;81.81;98182.13;4333093;33;34410;-83
2024/01/07 08:08:16;;;;;;;;;;;;;;;9.07;81.62;98179.81;4334666;33;34057;-84
2024/01/07 08:10:48;;;;;;;;;;;;;;;9.13;81.62;98184.78;4331204;33;33875;-85
2024/01/07 08:13:18;;;;;;;;;;;;;;;8.96;82.38;98193.94;4332998;33;33986;-85
2024/01/07 08:15:51;;;;;;;;;;;;;;;8.93;83.03;98186.25;4328379;33;34205;-84
2024/01/07 08:18:20;;;;;;;;;;;;;;;9.08;82.15;98192.69;4343007;33;33270;-84
2024/01/07 08:20:49;;;;;;;;;;;;;;;8.92;82.68;98192.34;4337984;33;34253;-84
2024/01/07 08:23:18;;;;;;;;;;;;;;;8.87;83.49;98193.38;4326558;33;33981;-84
2024/01/07 08:25:52;;;;;;;;;;;;;;;8.95;83.75;98194.81;4337943;33;34814;-84
2024/01/07 08:28:21;;;;;;;;;;;;;;;8.98;83.06;98199.88;4334956;33;32809;-85
2024/01/07 08:30:51;;;;;;;;;;;;;;;9.05;83.08;98199.72;4337776;33;33796;-84
2024/01/07 08:33:21;;;;;;;;;;;;;;;9.14;82.26;98200.28;4331559;33;34552;-86
2024/01/07 08:35:51;;;;;;;;;;;;;;;8.89;83.85;98200.19;4332336;33;33791;-85
2024/01/07 08:38:23;;;;;;;;;;;;;;;8.95;83.73;98205.16;4327198;33;33399;-83
2024/01/07 08:40:51;;;;;;;;;;;;;;;9.12;82.82;98203.81;4329804;33;34377;-85
2024/01/07 08:43:28;;;;;;;;;;;;;;;9.05;82.96;98204.88;4328732;33;33477;-84
2024/01/07 08:45:58;;;;;;;;;;;;;;;9.15;82.56;98208.88;4328449;33;34129;-85
2024/01/07 08:48:28;;;;;;;;;;;;;;;8.94;83.72;98206.06;4342137;33;33150;-84
2024/01/07 08:51:01;;;;;;;;;;;;;;;8.73;84.96;98209.28;4336841;33;34135;-85
2024/01/07 08:53:29;;;;;;;;;;;;;;;8.90;84.20;98209.63;4336529;33;34011;-83
2024/01/07 08:55:59;;;;;;;;;;;;;;;8.70;85.99;98209.41;4334407;32;34495;-83
2024/01/07 08:58:28;;;;;;;;;;;;;;;8.80;85.62;98210.81;4330466;33;33834;-85
2024/01/07 09:00:56;;;;;;;;;;;;;;;8.93;84.52;98213.88;4331277;32;33551;-84
2024/01/07 09:03:30;;;;;;;;;;;;;;;9.14;83.45;98222.72;4335528;33;33691;-85
2024/01/07 09:06:05;;;;;;;;;;;;;;;9.24;82.69;98218.94;4331295;33;34354;-84
2024/01/07 09:08:34;;;;;;;;;;;;;;;9.24;82.55;98223.28;4330647;32;34030;-84
2024/01/07 09:11:07;;;;;;;;;;;;;;;9.10;83.09;98227.13;4334695;33;34867;-84
2024/01/07 09:13:35;;;;;;;;;;;;;;;9.08;83.29;98228.06;4329695;33;34242;-84
2024/01/07 09:16:08;;;;;;;;;;;;;;;8.95;84.11;98227.59;4333097;33;34971;-83
2024/01/07 09:18:38;;;;;;;;;;;;;;;9.13;83.40;98226.19;4329991;33;33002;-84
2024/01/07 09:21:07;;;;;;;;;;;;;;;9.03;83.92;98220.44;4335575;33;33348;-83
2024/01/07 09:23:36;;;;;;;;;;;;;;;8.94;84.10;98220.75;4326706;33;35036;-84
2024/01/07 09:26:05;;;;;;;;;;;;;;;8.96;83.79;98227.56;4342916;32;34008;-85
2024/01/07 09:28:37;;;;;;;;;;;;;;;8.81;85.01;98225.41;4331832;33;32710;-83
2024/01/07 09:31:12;;;;;;;;;;;;;;;8.96;84.89;98222.41;4325770;33;34531;-85
2024/01/07 09:33:42;;;;;;;;;;;;;;;9.07;83.81;98223.81;4327057;33;33999;-83
2024/01/07 09:36:11;;;;;;;;;;;;;;;8.60;84.73;98231.22;4338351;33;33775;-84
2024/01/07 09:39:01;;;;;;;;;;;;;;;8.69;84.23;98236.12;4334592;33;33878;-83
2024/01/07 09:41:33;;;;;;;;;;;;;;;8.61;82.77;98236.34;4331901;33;33799;-83
2024/01/07 09:44:05;;;;;;;;;;;;;;;8.29;83.94;98232.06;4331549;33;34567;-83
2024/01/07 09:46:36;;;;;;;;;;;;;;;8.33;83.18;98234.47;4331686;33;33873;-83
2024/01/07 09:49:06;;;;;;;;;;;;;;;8.21;83.70;98232.25;4338321;33;33166;-83
2024/01/07 09:51:36;;;;;;;;;;;;;;;8.12;82.64;98230.78;4344263;33;33569;-84
2024/01/07 09:54:08;;;;;;;;;;;;;;;8.13;82.65;98229.03;4329610;33;33227;-84
2024/01/07 09:56:37;;;;;;;;;;;;;;;8.05;82.50;98223.22;4333087;33;33938;-83
2024/01/07 09:59:06;;;;;;;;;;;;;;;7.71;82.92;98234.44;4341398;33;33281;-84
2024/01/07 10:01:35;;;;;;;;;;;;;;;7.47;84.58;98216.06;4335111;33;33387;-84
2024/01/07 10:04:11;;;;;;;;;;;;;;;7.51;84.30;98224.56;4332882;33;35190;-84
2024/01/07 10:06:43;;;;;;;;;;;;;;;7.53;85.31;98233.13;4326519;33;34029;-83
2024/01/07 10:09:12;;;;;;;;;;;;;;;7.90;82.60;98225.31;4334733;33;33750;-84
2024/01/07 10:11:41;;;;;;;;;;;;;;;7.32;84.51;98218.16;4329470;33;34732;-85
2024/01/07 10:14:13;;;;;;;;;;;;;;;7.47;83.35;98215.22;4333656;33;33142;-84
2024/01/07 10:16:42;;;;;;;;;;;;;;;7.45;82.65;98215.25;4326781;33;33875;-84
2024/01/07 10:19:18;;;;;;;;;;;;;;;7.30;83.50;98220.78;4330554;33;32842;-84
2024/01/07 10:21:47;;;;;;;;;;;;;;;7.36;83.03;98220.62;4324897;33;34217;-83
2024/01/07 10:24:16;;;;;;;;;;;;;;;7.38;83.95;98213.72;4331516;33;34644;-84
2024/01/07 10:26:45;;;;;;;;;;;;;;;7.40;83.55;98222.25;4338475;33;34889;-83
2024/01/07 10:29:15;;;;;;;;;;;;;;;7.39;83.53;98217.13;4331454;33;33080;-83
2024/01/07 10:31:44;;;;;;;;;;;;;;;7.19;83.80;98218.44;4334495;33;34027;-84
2024/01/07 10:34:19;;;;;;;;;;;;;;;7.36;82.51;98214.62;4330343;33;34581;-84
2024/01/07 10:36:48;;;;;;;;;;;;;;;7.15;83.26;98213.38;4336841;32;34395;-83
2024/01/07 10:39:19;;;;;;;;;;;;;;;6.82;84.35;98208.13;4330548;33;32687;-82
2024/01/07 10:41:48;;;;;;;;;;;;;;;6.70;85.65;98206.66;4330600;33;34007;-82
2024/01/07 10:44:18;;;;;;;;;;;;;;;6.41;87.11;98213.25;4335656;33;34096;-83
2024/01/07 10:46:48;;;;;;;;;;;;;;;6.41;88.05;98208.09;4330073;33;33787;-85
2024/01/07 10:49:21;;;;;;;;;;;;;;;6.53;87.81;98208.75;4335155;33;33935;-83
2024/01/07 10:51:56;;;;;;;;;;;;;;;6.82;85.99;98206.41;4332987;33;33926;-83
2024/01/07 10:54:25;;;;;;;;;;;;;;;6.75;86.00;98215.13;4331425;33;33885;-83
2024/01/07 10:56:54;;;;;;;;;;;;;;;6.59;85.70;98209.44;4333080;33;34052;-82
2024/01/07 10:59:25;;;;;;;;;;;;;;;6.35;87.37;98205.66;4336828;33;33537;-83
2024/01/07 11:01:56;;;;;;;;;;;;;;;6.39;86.97;98207.28;4327811;33;33540;-84
2024/01/07 11:04:33;;;;;;;;;;;;;;;6.36;87.02;98207.34;4329711;33;32681;-83
2024/01/07 11:07:10;;;;;;;;;;;;;;;6.65;86.10;98197.34;4331541;33;33859;-82
2024/01/07 11:09:41;;;;;;;;;;;;;;;6.38;86.12;98195.31;4330997;33;33630;-83
2024/01/07 11:12:10;;;;;;;;;;;;;;;6.52;86.21;98201.87;4338797;33;34760;-82
2024/01/07 11:14:45;;;;;;;;;;;;;;;6.45;86.64;98196.03;4331296;33;34646;-82
2024/01/07 11:17:14;;;;;;;;;;;;;;;6.54;85.72;98197.56;4331223;33;34577;-82
2024/01/07 11:19:52;;;;;;;;;;;;;;;6.37;86.66;98200.47;4331642;33;34425;-84
2024/01/07 11:22:27;;;;;;;;;;;;;;;6.55;86.19;98200.09;4336807;33;33535;-82
2024/01/07 11:24:56;;;;;;;;;;;;;;;6.47;85.19;98201.13;4338432;33;32960;-83
2024/01/07 11:27:25;;;;;;;;;;;;;;;6.66;84.86;98199.88;4332095;33;34656;-82
2024/01/07 11:29:57;;;;;;;;;;;;;;;6.79;84.25;98196.16;4338991;33;32938;-82
2024/01/07 11:32:32;;;;;;;;;;;;;;;6.48;84.59;98205.44;4333173;33;34244;-82
2024/01/07 11:35:02;;;;;;;;;;;;;;;6.37;85.57;98203.03;4333706;33;33899;-82
2024/01/07 11:37:32;;;;;;;;;;;;;;;6.47;85.30;98196.81;4344175;32;34545;-82
2024/01/07 11:40:01;;;;;;;;;;;;;;;6.45;85.32;98201.19;4336106;33;33539;-83
2024/01/07 11:42:30;;;;;;;;;;;;;;;6.49;84.95;98192.50;4336652;33;34749;-83
2024/01/07 11:45:02;;;;;;;;;;;;;;;6.61;84.67;98202.53;4337131;33;34169;-84
2024/01/07 11:47:31;;;;;;;;;;;;;;;6.53;84.22;98203.59;4332150;33;34556;-84
2024/01/07 11:50:02;;;;;;;;;;;;;;;6.78;83.42;98196.19;4329747;33;33264;-83
2024/01/07 11:52:32;;;;;;;;;;;;;;;6.41;84.29;98204.69;4324964;33;35769;-84
2024/01/07 11:55:05;;;;;;;;;;;;;;;6.51;83.46;98200.19;4324383;33;34908;-84
2024/01/07 11:57:33;;;;;;;;;;;;;;;6.63;83.97;98199.94;4326268;33;33577;-83
2024/01/07 12:00:04;;;;;;;;;;;;;;;6.66;82.66;98202.44;4333834;33;33545;-83
2024/01/07 12:02:42;;;;;;;;;;;;;;;6.28;84.29;98200.66;4330752;33;34310;-83
2024/01/07 12:05:15;;;;;;;;;;;;;;;6.39;83.49;98196.16;4324019;33;33816;-84
2024/01/07 12:07:46;;;;;;;;;;;;;;;6.04;85.81;98197.69;4334289;33;34240;-84
2024/01/07 12:10:17;;;;;;;;;;;;;;;6.10;84.70;98195.00;4339211;33;33946;-84
2024/01/07 12:12:49;;;;;;;;;;;;;;;6.10;84.71;98195.00;4339512;33;33763;-84
2024/01/07 12:15:25;;;;;;;;;;;;;;;5.83;86.19;98196.31;4326268;33;33636;-83
2024/01/07 12:17:58;;;;;;;;;;;;;;;5.69;86.79;98206.00;4326010;33;34065;-83
2024/01/07 12:20:35;;;;;;;;;;;;;;;5.82;86.45;98206.62;4332981;33;33859;-83
2024/01/07 12:23:08;;;;;;;;;;;;;;;6.01;85.38;98199.47;4331674;33;33724;-83
2024/01/07 12:25:36;;;;;;;;;;;;;;;5.71;86.79;98211.97;4330871;33;34902;-83
2024/01/07 12:28:11;;;;;;;;;;;;;;;5.82;85.64;98216.94;4329599;33;34424;-82
2024/01/07 12:30:40;;;;;;;;;;;;;;;5.51;86.90;98210.59;4327955;33;33099;-84
2024/01/07 12:33:11;;;;;;;;;;;;;;;5.62;86.91;98209.56;4331962;33;33816;-84
2024/01/07 12:35:41;;;;;;;;;;;;;;;5.46;87.48;98214.09;4333259;33;32388;-83
2024/01/07 12:38:11;;;;;;;;;;;;;;;5.37;88.02;98211.69;4345975;32;34127;-84
2024/01/07 12:40:40;;;;;;;;;;;;;;;5.52;87.36;98220.00;4332770;32;34515;-82
2024/01/07 12:43:08;;;;;;;;;;;;;;;5.90;85.62;98215.09;4337426;33;34630;-83
2024/01/07 12:45:37;;;;;;;;;;;;;;;5.70;86.12;98224.00;4339109;33;35151;-83
2024/01/07 12:48:06;;;;;;;;;;;;;;;5.79;84.77;98222.97;4328333;33;35080;-83
2024/01/07 12:50:36;;;;;;;;;;;;;;;5.66;85.43;98224.94;4324429;33;34038;-82
2024/01/07 12:53:06;;;;;;;;;;;;;;;5.66;84.70;98221.50;4315645;33;33818;-82
2024/01/07 12:55:35;;;;;;;;;;;;;;;5.60;85.42;98227.59;4330512;33;35016;-82
2024/01/07 12:58:03;;;;;;;;;;;;;;;5.76;85.04;98236.75;4332913;33;33988;-84
2024/01/07 13:00:34;;;;;;;;;;;;;;;5.77;84.45;98235.03;4337798;33;33349;-82
2024/01/07 13:03:04;;;;;;;;;;;;;;;5.50;85.35;98229.47;4335983;33;34296;-83
2024/01/07 13:05:34;;;;;;;;;;;;;;;5.74;84.64;98237.66;4332226;33;34918;-83
2024/01/07 13:08:06;;;;;;;;;;;;;;;5.50;85.49;98242.31;4330749;33;34126;-83
2024/01/07 13:10:35;;;;;;;;;;;;;;;5.37;86.74;98248.53;4336963;33;33639;-83
2024/01/07 13:13:07;;;;;;;;;;;;;;;5.05;87.46;98246.44;4325962;33;34375;-82
2024/01/07 13:15:43;;;;;;;;;;;;;;;5.03;89.09;98250.78;4330477;33;34593;-82
2024/01/07 13:18:12;;;;;;;;;;;;;;;5.11;88.06;98264.34;4331366;33;35042;-82
2024/01/07 13:20:41;;;;;;;;;;;;;;;5.15;87.52;98263.44;4336392;33;33632;-81